sensor_id;sensor_type;location;lat;lon;timestamp;temperature;humidity
7159;DHT22;3621;52.374;13.098;2022-08-25T00:00:44;24.10;99.90
7159;DHT22;3621;52.374;13.098;2022-08-25T00:03:11;24.10;99.90
7159;DHT22;3621;52.374;13.098;2022-08-25T00:05:38;24.10;99.90
7159;DHT22;3621;52.374;13.098;2022-08-25T00:08:06;24.00;99.90
7159;DHT22;3621;52.374;13.098;2022-08-25T00:10:34;24.00;99.90
7159;DHT22;3621;52.374;13.098;2022-08-25T00:13:03;24.00;99.90
7159;DHT22;3621;52.374;13.098;2022-08-25T00:15:31;24.00;99.90
7159;DHT22;3621;52.374;13.098;2022-08-25T00:17:59;23.90;99.90
7159;DHT22;3621;52.374;13.098;2022-08-25T00:20:27;23.90;99.90
7159;DHT22;3621;52.374;13.098;2022-08-25T00:22:54;23.90;99.90
7159;DHT22;3621;52.374;13.098;2022-08-25T00:25:22;23.90;99.90
7159;DHT22;3621;52.374;13.098;2022-08-25T00:27:49;23.90;99.90
7159;DHT22;3621;52.374;13.098;2022-08-25T00:30:18;23.90;99.90
7159;DHT22;3621;52.374;13.098;2022-08-25T00:32:46;23.80;99.90
7159;DHT22;3621;52.374;13.098;2022-08-25T00:35:13;23.80;99.90
7159;DHT22;3621;52.374;13.098;2022-08-25T00:37:41;23.80;99.90
7159;DHT22;3621;52.374;13.098;2022-08-25T00:40:09;23.80;99.90
7159;DHT22;3621;52.374;13.098;2022-08-25T00:42:36;23.80;99.90
7159;DHT22;3621;52.374;13.098;2022-08-25T00:45:07;23.70;99.90
7159;DHT22;3621;52.374;13.098;2022-08-25T00:47:36;23.70;99.90
7159;DHT22;3621;52.374;13.098;2022-08-25T00:50:06;23.70;99.90
7159;DHT22;3621;52.374;13.098;2022-08-25T00:52:37;23.70;99.90
7159;DHT22;3621;52.374;13.098;2022-08-25T00:55:09;23.70;99.90
7159;DHT22;3621;52.374;13.098;2022-08-25T00:57:39;23.60;99.90
7159;DHT22;3621;52.374;13.098;2022-08-25T01:00:13;23.60;99.90
7159;DHT22;3621;52.374;13.098;2022-08-25T01:02:42;23.60;99.90
7159;DHT22;3621;52.374;13.098;2022-08-25T01:05:09;23.60;99.90
7159;DHT22;3621;52.374;13.098;2022-08-25T01:07:37;23.60;99.90
7159;DHT22;3621;52.374;13.098;2022-08-25T01:10:06;23.50;99.90
7159;DHT22;3621;52.374;13.098;2022-08-25T01:12:33;23.50;99.90
7159;DHT22;3621;52.374;13.098;2022-08-25T01:15:02;23.50;99.90
7159;DHT22;3621;52.374;13.098;2022-08-25T01:17:33;23.50;99.90
7159;DHT22;3621;52.374;13.098;2022-08-25T01:20:03;23.40;99.90
7159;DHT22;3621;52.374;13.098;2022-08-25T01:22:31;23.40;99.90
7159;DHT22;3621;52.374;13.098;2022-08-25T01:25:02;23.40;99.90
7159;DHT22;3621;52.374;13.098;2022-08-25T01:27:30;23.40;99.90
7159;DHT22;3621;52.374;13.098;2022-08-25T01:29:57;23.40;99.90
7159;DHT22;3621;52.374;13.098;2022-08-25T01:32:24;23.30;99.90
7159;DHT22;3621;52.374;13.098;2022-08-25T01:34:51;23.30;99.90
7159;DHT22;3621;52.374;13.098;2022-08-25T01:37:18;23.30;99.90
7159;DHT22;3621;52.374;13.098;2022-08-25T01:39:46;23.30;99.90
7159;DHT22;3621;52.374;13.098;2022-08-25T01:42:22;23.30;99.90
7159;DHT22;3621;52.374;13.098;2022-08-25T01:44:50;23.30;99.90
7159;DHT22;3621;52.374;13.098;2022-08-25T01:47:17;23.20;99.90
7159;DHT22;3621;52.374;13.098;2022-08-25T01:49:44;23.20;99.90
7159;DHT22;3621;52.374;13.098;2022-08-25T01:52:15;23.20;99.90
7159;DHT22;3621;52.374;13.098;2022-08-25T01:54:42;23.20;99.90
7159;DHT22;3621;52.374;13.098;2022-08-25T01:57:10;23.20;99.90
7159;DHT22;3621;52.374;13.098;2022-08-25T01:59:37;23.20;99.90
7159;DHT22;3621;52.374;13.098;2022-08-25T02:02:04;23.20;99.90
7159;DHT22;3621;52.374;13.098;2022-08-25T02:04:33;23.10;99.90
7159;DHT22;3621;52.374;13.098;2022-08-25T02:07:01;23.10;99.90
7159;DHT22;3621;52.374;13.098;2022-08-25T02:09:29;23.10;99.90
7159;DHT22;3621;52.374;13.098;2022-08-25T02:11:56;23.10;99.90
7159;DHT22;3621;52.374;13.098;2022-08-25T02:14:25;23.10;99.90
7159;DHT22;3621;52.374;13.098;2022-08-25T02:16:53;23.10;99.90
7159;DHT22;3621;52.374;13.098;2022-08-25T02:19:22;23.10;99.90
7159;DHT22;3621;52.374;13.098;2022-08-25T02:21:50;23.00;99.90
7159;DHT22;3621;52.374;13.098;2022-08-25T02:24:17;23.00;99.90
7159;DHT22;3621;52.374;13.098;2022-08-25T02:26:44;23.00;99.90
7159;DHT22;3621;52.374;13.098;2022-08-25T02:29:11;23.00;99.90
7159;DHT22;3621;52.374;13.098;2022-08-25T02:31:39;22.90;99.90
7159;DHT22;3621;52.374;13.098;2022-08-25T02:34:08;22.90;99.90
7159;DHT22;3621;52.374;13.098;2022-08-25T02:36:36;22.90;99.90
7159;DHT22;3621;52.374;13.098;2022-08-25T02:39:03;22.90;99.90
7159;DHT22;3621;52.374;13.098;2022-08-25T02:41:30;22.90;99.90
7159;DHT22;3621;52.374;13.098;2022-08-25T02:43:58;22.80;99.90
7159;DHT22;3621;52.374;13.098;2022-08-25T02:46:26;22.80;99.90
7159;DHT22;3621;52.374;13.098;2022-08-25T02:48:54;22.80;99.90
7159;DHT22;3621;52.374;13.098;2022-08-25T02:51:22;22.80;99.90
7159;DHT22;3621;52.374;13.098;2022-08-25T02:53:50;22.80;99.90
7159;DHT22;3621;52.374;13.098;2022-08-25T02:56:18;22.80;99.90
7159;DHT22;3621;52.374;13.098;2022-08-25T02:58:46;22.80;99.90
7159;DHT22;3621;52.374;13.098;2022-08-25T03:01:15;22.80;99.90
7159;DHT22;3621;52.374;13.098;2022-08-25T03:03:43;22.80;99.90
7159;DHT22;3621;52.374;13.098;2022-08-25T03:06:13;22.80;99.90
7159;DHT22;3621;52.374;13.098;2022-08-25T03:08:41;22.80;99.90
7159;DHT22;3621;52.374;13.098;2022-08-25T03:11:09;22.70;99.90
7159;DHT22;3621;52.374;13.098;2022-08-25T03:13:36;22.70;99.90
7159;DHT22;3621;52.374;13.098;2022-08-25T03:16:05;22.70;99.90
7159;DHT22;3621;52.374;13.098;2022-08-25T03:18:33;22.70;99.90
7159;DHT22;3621;52.374;13.098;2022-08-25T03:21:00;22.70;99.90
7159;DHT22;3621;52.374;13.098;2022-08-25T03:23:29;22.70;99.90
7159;DHT22;3621;52.374;13.098;2022-08-25T03:25:56;22.70;99.90
7159;DHT22;3621;52.374;13.098;2022-08-25T03:28:40;22.70;99.90
7159;DHT22;3621;52.374;13.098;2022-08-25T03:31:08;22.70;99.90
7159;DHT22;3621;52.374;13.098;2022-08-25T03:33:35;22.70;99.90
7159;DHT22;3621;52.374;13.098;2022-08-25T03:36:03;22.60;99.90
7159;DHT22;3621;52.374;13.098;2022-08-25T03:38:31;22.60;99.90
7159;DHT22;3621;52.374;13.098;2022-08-25T03:40:58;22.60;99.90
7159;DHT22;3621;52.374;13.098;2022-08-25T03:43:25;22.50;99.90
7159;DHT22;3621;52.374;13.098;2022-08-25T03:45:52;22.50;99.90
7159;DHT22;3621;52.374;13.098;2022-08-25T03:48:18;22.50;99.90
7159;DHT22;3621;52.374;13.098;2022-08-25T03:50:48;22.50;99.90
7159;DHT22;3621;52.374;13.098;2022-08-25T03:53:15;22.50;99.90
7159;DHT22;3621;52.374;13.098;2022-08-25T03:55:44;22.50;99.90
7159;DHT22;3621;52.374;13.098;2022-08-25T03:58:11;22.50;99.90
7159;DHT22;3621;52.374;13.098;2022-08-25T04:00:38;22.50;99.90
7159;DHT22;3621;52.374;13.098;2022-08-25T04:03:05;22.40;99.90
7159;DHT22;3621;52.374;13.098;2022-08-25T04:05:32;22.40;99.90
7159;DHT22;3621;52.374;13.098;2022-08-25T04:07:59;22.40;99.90
7159;DHT22;3621;52.374;13.098;2022-08-25T04:10:26;22.40;99.90
7159;DHT22;3621;52.374;13.098;2022-08-25T04:12:55;22.40;99.90
7159;DHT22;3621;52.374;13.098;2022-08-25T04:15:22;22.40;99.90
7159;DHT22;3621;52.374;13.098;2022-08-25T04:17:49;22.40;99.90
7159;DHT22;3621;52.374;13.098;2022-08-25T04:20:16;22.30;99.90
7159;DHT22;3621;52.374;13.098;2022-08-25T04:22:43;22.30;99.90
7159;DHT22;3621;52.374;13.098;2022-08-25T04:25:10;22.30;99.90
7159;DHT22;3621;52.374;13.098;2022-08-25T04:27:38;22.30;99.90
7159;DHT22;3621;52.374;13.098;2022-08-25T04:30:07;22.30;99.90
7159;DHT22;3621;52.374;13.098;2022-08-25T04:32:35;22.30;99.90
7159;DHT22;3621;52.374;13.098;2022-08-25T04:35:02;22.20;99.90
7159;DHT22;3621;52.374;13.098;2022-08-25T04:37:30;22.20;99.90
7159;DHT22;3621;52.374;13.098;2022-08-25T04:39:57;22.20;99.90
7159;DHT22;3621;52.374;13.098;2022-08-25T04:42:24;22.10;99.90
7159;DHT22;3621;52.374;13.098;2022-08-25T04:44:51;22.20;99.90
7159;DHT22;3621;52.374;13.098;2022-08-25T04:47:20;22.20;99.90
7159;DHT22;3621;52.374;13.098;2022-08-25T04:49:47;22.10;99.90
7159;DHT22;3621;52.374;13.098;2022-08-25T04:52:14;22.20;99.90
7159;DHT22;3621;52.374;13.098;2022-08-25T04:54:42;22.20;99.90
7159;DHT22;3621;52.374;13.098;2022-08-25T04:57:11;22.10;99.90
7159;DHT22;3621;52.374;13.098;2022-08-25T04:59:38;22.10;99.90
7159;DHT22;3621;52.374;13.098;2022-08-25T05:02:05;22.10;99.90
7159;DHT22;3621;52.374;13.098;2022-08-25T05:04:34;22.20;99.90
7159;DHT22;3621;52.374;13.098;2022-08-25T05:07:02;22.10;99.90
7159;DHT22;3621;52.374;13.098;2022-08-25T05:09:29;22.10;99.90
7159;DHT22;3621;52.374;13.098;2022-08-25T05:11:56;22.10;99.90
7159;DHT22;3621;52.374;13.098;2022-08-25T05:14:23;22.20;99.90
7159;DHT22;3621;52.374;13.098;2022-08-25T05:16:50;22.10;99.90
7159;DHT22;3621;52.374;13.098;2022-08-25T05:19:17;22.10;99.90
7159;DHT22;3621;52.374;13.098;2022-08-25T05:21:45;22.10;99.90
7159;DHT22;3621;52.374;13.098;2022-08-25T05:24:12;22.10;99.90
7159;DHT22;3621;52.374;13.098;2022-08-25T05:26:39;22.10;99.90
7159;DHT22;3621;52.374;13.098;2022-08-25T05:29:06;22.10;99.90
7159;DHT22;3621;52.374;13.098;2022-08-25T05:31:35;22.10;99.90
7159;DHT22;3621;52.374;13.098;2022-08-25T05:34:04;22.20;99.90
7159;DHT22;3621;52.374;13.098;2022-08-25T05:36:32;22.20;99.90
7159;DHT22;3621;52.374;13.098;2022-08-25T05:39:03;22.20;99.90
7159;DHT22;3621;52.374;13.098;2022-08-25T05:41:30;22.20;99.90
7159;DHT22;3621;52.374;13.098;2022-08-25T05:43:58;22.20;99.90
7159;DHT22;3621;52.374;13.098;2022-08-25T05:46:25;22.20;99.90
7159;DHT22;3621;52.374;13.098;2022-08-25T05:48:52;22.20;99.90
7159;DHT22;3621;52.374;13.098;2022-08-25T05:51:20;22.30;99.90
7159;DHT22;3621;52.374;13.098;2022-08-25T05:53:49;22.30;99.90
7159;DHT22;3621;52.374;13.098;2022-08-25T05:56:18;22.30;99.90
7159;DHT22;3621;52.374;13.098;2022-08-25T05:58:45;22.30;99.90
7159;DHT22;3621;52.374;13.098;2022-08-25T06:01:24;22.40;99.90
7159;DHT22;3621;52.374;13.098;2022-08-25T06:04:09;22.40;99.90
7159;DHT22;3621;52.374;13.098;2022-08-25T06:06:36;22.40;99.90
7159;DHT22;3621;52.374;13.098;2022-08-25T06:09:04;22.50;99.90
7159;DHT22;3621;52.374;13.098;2022-08-25T06:11:35;22.50;99.90
7159;DHT22;3621;52.374;13.098;2022-08-25T06:14:02;22.50;99.90
7159;DHT22;3621;52.374;13.098;2022-08-25T06:16:30;22.50;99.90
7159;DHT22;3621;52.374;13.098;2022-08-25T06:18:57;22.60;99.90
7159;DHT22;3621;52.374;13.098;2022-08-25T06:21:24;22.70;99.90
7159;DHT22;3621;52.374;13.098;2022-08-25T06:23:51;22.70;99.90
7159;DHT22;3621;52.374;13.098;2022-08-25T06:26:18;22.80;99.90
7159;DHT22;3621;52.374;13.098;2022-08-25T06:28:46;22.90;99.90
7159;DHT22;3621;52.374;13.098;2022-08-25T06:31:14;22.90;99.90
7159;DHT22;3621;52.374;13.098;2022-08-25T06:33:41;23.00;99.90
7159;DHT22;3621;52.374;13.098;2022-08-25T06:36:08;23.00;99.90
7159;DHT22;3621;52.374;13.098;2022-08-25T06:38:35;23.10;99.90
7159;DHT22;3621;52.374;13.098;2022-08-25T06:41:03;23.20;99.90
7159;DHT22;3621;52.374;13.098;2022-08-25T06:43:30;23.30;99.90
7159;DHT22;3621;52.374;13.098;2022-08-25T06:46:07;23.40;99.90
7159;DHT22;3621;52.374;13.098;2022-08-25T06:48:34;23.40;99.90
7159;DHT22;3621;52.374;13.098;2022-08-25T06:51:05;23.40;99.90
7159;DHT22;3621;52.374;13.098;2022-08-25T06:53:32;23.50;99.90
7159;DHT22;3621;52.374;13.098;2022-08-25T06:55:59;23.60;99.90
7159;DHT22;3621;52.374;13.098;2022-08-25T06:58:26;23.60;99.90
7159;DHT22;3621;52.374;13.098;2022-08-25T07:00:54;23.60;99.90
7159;DHT22;3621;52.374;13.098;2022-08-25T07:03:23;23.60;99.90
7159;DHT22;3621;52.374;13.098;2022-08-25T07:05:51;23.70;99.90
7159;DHT22;3621;52.374;13.098;2022-08-25T07:08:18;23.70;99.90
7159;DHT22;3621;52.374;13.098;2022-08-25T07:10:45;23.70;99.90
7159;DHT22;3621;52.374;13.098;2022-08-25T07:13:12;23.70;99.90
7159;DHT22;3621;52.374;13.098;2022-08-25T07:15:41;23.80;99.90
7159;DHT22;3621;52.374;13.098;2022-08-25T07:18:08;23.70;99.90
7159;DHT22;3621;52.374;13.098;2022-08-25T07:20:38;23.80;99.90
7159;DHT22;3621;52.374;13.098;2022-08-25T07:23:06;23.80;99.90
7159;DHT22;3621;52.374;13.098;2022-08-25T07:25:34;23.80;99.90
7159;DHT22;3621;52.374;13.098;2022-08-25T07:28:01;23.80;99.90
7159;DHT22;3621;52.374;13.098;2022-08-25T07:30:28;23.80;99.90
7159;DHT22;3621;52.374;13.098;2022-08-25T07:32:55;23.80;99.90
7159;DHT22;3621;52.374;13.098;2022-08-25T07:35:23;23.80;99.90
7159;DHT22;3621;52.374;13.098;2022-08-25T07:37:53;23.80;99.90
7159;DHT22;3621;52.374;13.098;2022-08-25T07:40:23;23.80;99.90
7159;DHT22;3621;52.374;13.098;2022-08-25T07:42:51;23.90;99.90
7159;DHT22;3621;52.374;13.098;2022-08-25T07:45:20;23.90;99.90
7159;DHT22;3621;52.374;13.098;2022-08-25T07:47:49;23.90;99.90
7159;DHT22;3621;52.374;13.098;2022-08-25T07:50:19;23.90;99.90
7159;DHT22;3621;52.374;13.098;2022-08-25T07:52:46;24.10;99.90
7159;DHT22;3621;52.374;13.098;2022-08-25T07:55:14;24.10;99.90
7159;DHT22;3621;52.374;13.098;2022-08-25T07:57:41;24.20;99.90
7159;DHT22;3621;52.374;13.098;2022-08-25T08:00:09;24.40;99.90
7159;DHT22;3621;52.374;13.098;2022-08-25T08:02:37;24.50;99.90
7159;DHT22;3621;52.374;13.098;2022-08-25T08:05:04;24.60;99.90
7159;DHT22;3621;52.374;13.098;2022-08-25T08:07:31;24.80;99.90
7159;DHT22;3621;52.374;13.098;2022-08-25T08:09:58;24.90;99.90
7159;DHT22;3621;52.374;13.098;2022-08-25T08:12:27;25.00;99.90
7159;DHT22;3621;52.374;13.098;2022-08-25T08:14:54;25.10;99.90
7159;DHT22;3621;52.374;13.098;2022-08-25T08:17:21;25.20;99.90
7159;DHT22;3621;52.374;13.098;2022-08-25T08:19:48;25.40;99.90
7159;DHT22;3621;52.374;13.098;2022-08-25T08:22:15;25.50;99.90
7159;DHT22;3621;52.374;13.098;2022-08-25T08:24:43;25.70;99.90
7159;DHT22;3621;52.374;13.098;2022-08-25T08:27:11;25.90;99.90
7159;DHT22;3621;52.374;13.098;2022-08-25T08:29:41;26.00;99.90
7159;DHT22;3621;52.374;13.098;2022-08-25T08:32:09;26.00;99.90
7159;DHT22;3621;52.374;13.098;2022-08-25T08:34:38;26.10;99.90
7159;DHT22;3621;52.374;13.098;2022-08-25T08:37:06;26.20;99.90
7159;DHT22;3621;52.374;13.098;2022-08-25T08:39:33;26.20;99.90
7159;DHT22;3621;52.374;13.098;2022-08-25T08:42:10;26.20;99.90
7159;DHT22;3621;52.374;13.098;2022-08-25T08:44:53;26.10;99.90
7159;DHT22;3621;52.374;13.098;2022-08-25T08:47:31;26.10;99.90
7159;DHT22;3621;52.374;13.098;2022-08-25T08:50:05;26.10;99.90
7159;DHT22;3621;52.374;13.098;2022-08-25T08:52:40;26.00;99.90
7159;DHT22;3621;52.374;13.098;2022-08-25T08:55:15;26.00;99.90
7159;DHT22;3621;52.374;13.098;2022-08-25T08:57:50;25.90;99.90
7159;DHT22;3621;52.374;13.098;2022-08-25T09:00:21;25.90;99.90
7159;DHT22;3621;52.374;13.098;2022-08-25T09:02:52;25.90;99.90
7159;DHT22;3621;52.374;13.098;2022-08-25T09:05:26;25.90;99.90
7159;DHT22;3621;52.374;13.098;2022-08-25T09:07:56;26.00;99.90
7159;DHT22;3621;52.374;13.098;2022-08-25T09:10:31;26.10;99.90
7159;DHT22;3621;52.374;13.098;2022-08-25T09:13:05;26.20;99.90
7159;DHT22;3621;52.374;13.098;2022-08-25T09:15:43;26.30;99.90
7159;DHT22;3621;52.374;13.098;2022-08-25T09:18:37;26.30;99.90
7159;DHT22;3621;52.374;13.098;2022-08-25T09:21:11;26.40;99.90
7159;DHT22;3621;52.374;13.098;2022-08-25T09:23:49;26.40;99.90
7159;DHT22;3621;52.374;13.098;2022-08-25T09:26:28;26.40;99.90
7159;DHT22;3621;52.374;13.098;2022-08-25T09:29:01;26.40;99.90
7159;DHT22;3621;52.374;13.098;2022-08-25T09:31:34;26.50;99.90
7159;DHT22;3621;52.374;13.098;2022-08-25T09:34:06;26.70;99.90
7159;DHT22;3621;52.374;13.098;2022-08-25T09:36:33;26.80;99.90
7159;DHT22;3621;52.374;13.098;2022-08-25T09:39:00;27.00;99.90
7159;DHT22;3621;52.374;13.098;2022-08-25T09:41:44;27.10;99.90
7159;DHT22;3621;52.374;13.098;2022-08-25T09:44:21;27.30;99.90
7159;DHT22;3621;52.374;13.098;2022-08-25T09:47:02;27.50;99.90
7159;DHT22;3621;52.374;13.098;2022-08-25T09:49:38;27.70;99.90
7159;DHT22;3621;52.374;13.098;2022-08-25T09:52:25;27.90;99.30
7159;DHT22;3621;52.374;13.098;2022-08-25T09:54:58;28.10;98.90
7159;DHT22;3621;52.374;13.098;2022-08-25T09:57:32;28.10;98.50
7159;DHT22;3621;52.374;13.098;2022-08-25T10:00:13;28.20;98.00
7159;DHT22;3621;52.374;13.098;2022-08-25T10:02:42;28.10;97.90
7159;DHT22;3621;52.374;13.098;2022-08-25T10:05:21;28.10;97.90
7159;DHT22;3621;52.374;13.098;2022-08-25T10:07:52;28.10;98.00
7159;DHT22;3621;52.374;13.098;2022-08-25T10:10:27;28.10;97.90
7159;DHT22;3621;52.374;13.098;2022-08-25T10:12:55;28.10;97.80
7159;DHT22;3621;52.374;13.098;2022-08-25T10:15:28;28.00;97.70
7159;DHT22;3621;52.374;13.098;2022-08-25T10:18:18;28.00;97.80
7159;DHT22;3621;52.374;13.098;2022-08-25T10:21:01;28.00;97.80
7159;DHT22;3621;52.374;13.098;2022-08-25T10:23:28;28.00;97.90
7159;DHT22;3621;52.374;13.098;2022-08-25T10:25:58;28.00;97.70
7159;DHT22;3621;52.374;13.098;2022-08-25T10:28:32;28.00;97.30
7159;DHT22;3621;52.374;13.098;2022-08-25T10:31:07;28.00;97.40
7159;DHT22;3621;52.374;13.098;2022-08-25T10:33:46;28.10;97.40
7159;DHT22;3621;52.374;13.098;2022-08-25T10:36:19;28.00;97.40
7159;DHT22;3621;52.374;13.098;2022-08-25T10:38:51;28.00;97.20
7159;DHT22;3621;52.374;13.098;2022-08-25T10:41:36;28.00;97.20
7159;DHT22;3621;52.374;13.098;2022-08-25T10:44:14;27.90;97.20
7159;DHT22;3621;52.374;13.098;2022-08-25T10:47:19;27.90;97.40
7159;DHT22;3621;52.374;13.098;2022-08-25T10:49:54;27.90;97.30
7159;DHT22;3621;52.374;13.098;2022-08-25T10:52:27;27.80;97.30
7159;DHT22;3621;52.374;13.098;2022-08-25T10:55:03;27.80;97.30
7159;DHT22;3621;52.374;13.098;2022-08-25T10:57:38;27.80;97.40
7159;DHT22;3621;52.374;13.098;2022-08-25T11:00:11;27.80;97.60
7159;DHT22;3621;52.374;13.098;2022-08-25T11:05:31;27.80;97.40
7159;DHT22;3621;52.374;13.098;2022-08-25T11:08:07;27.80;97.40
7159;DHT22;3621;52.374;13.098;2022-08-25T11:10:43;27.80;97.50
7159;DHT22;3621;52.374;13.098;2022-08-25T11:13:17;27.90;97.50
7159;DHT22;3621;52.374;13.098;2022-08-25T11:15:51;27.90;97.40
7159;DHT22;3621;52.374;13.098;2022-08-25T11:18:19;28.00;97.50
7159;DHT22;3621;52.374;13.098;2022-08-25T11:20:56;28.00;97.20
7159;DHT22;3621;52.374;13.098;2022-08-25T11:23:29;28.10;97.00
7159;DHT22;3621;52.374;13.098;2022-08-25T11:25:59;28.10;96.90
7159;DHT22;3621;52.374;13.098;2022-08-25T11:28:32;28.20;96.90
7159;DHT22;3621;52.374;13.098;2022-08-25T11:31:02;28.30;96.60
7159;DHT22;3621;52.374;13.098;2022-08-25T11:33:29;28.30;96.50
7159;DHT22;3621;52.374;13.098;2022-08-25T11:36:03;28.30;96.40
7159;DHT22;3621;52.374;13.098;2022-08-25T11:38:41;28.40;96.20
7159;DHT22;3621;52.374;13.098;2022-08-25T11:41:20;28.50;96.30
7159;DHT22;3621;52.374;13.098;2022-08-25T11:44:04;28.60;95.90
7159;DHT22;3621;52.374;13.098;2022-08-25T11:46:48;28.60;95.30
7159;DHT22;3621;52.374;13.098;2022-08-25T11:49:30;28.70;95.40
7159;DHT22;3621;52.374;13.098;2022-08-25T11:52:01;28.70;95.40
7159;DHT22;3621;52.374;13.098;2022-08-25T11:54:29;28.70;95.40
7159;DHT22;3621;52.374;13.098;2022-08-25T11:57:02;28.70;95.20
7159;DHT22;3621;52.374;13.098;2022-08-25T12:00:06;28.70;95.10
7159;DHT22;3621;52.374;13.098;2022-08-25T12:02:40;28.70;95.10
7159;DHT22;3621;52.374;13.098;2022-08-25T12:05:11;28.70;95.00
7159;DHT22;3621;52.374;13.098;2022-08-25T12:08:02;28.70;94.80
7159;DHT22;3621;52.374;13.098;2022-08-25T12:10:58;28.80;94.80
7159;DHT22;3621;52.374;13.098;2022-08-25T12:13:44;28.80;94.50
7159;DHT22;3621;52.374;13.098;2022-08-25T12:16:38;28.90;94.50
7159;DHT22;3621;52.374;13.098;2022-08-25T12:19:46;28.90;94.30
7159;DHT22;3621;52.374;13.098;2022-08-25T12:22:42;29.00;94.20
7159;DHT22;3621;52.374;13.098;2022-08-25T12:25:34;29.00;94.10
7159;DHT22;3621;52.374;13.098;2022-08-25T12:28:07;29.00;93.80
7159;DHT22;3621;52.374;13.098;2022-08-25T12:30:42;29.00;93.60
7159;DHT22;3621;52.374;13.098;2022-08-25T12:33:19;28.90;93.70
7159;DHT22;3621;52.374;13.098;2022-08-25T12:35:55;29.00;93.70
7159;DHT22;3621;52.374;13.098;2022-08-25T12:38:31;29.00;93.50
7159;DHT22;3621;52.374;13.098;2022-08-25T12:41:06;29.00;93.40
7159;DHT22;3621;52.374;13.098;2022-08-25T12:43:36;29.00;93.30
7159;DHT22;3621;52.374;13.098;2022-08-25T12:46:31;29.00;93.20
7159;DHT22;3621;52.374;13.098;2022-08-25T12:48:59;29.10;92.90
7159;DHT22;3621;52.374;13.098;2022-08-25T12:51:39;29.10;92.80
7159;DHT22;3621;52.374;13.098;2022-08-25T12:54:15;29.10;92.60
7159;DHT22;3621;52.374;13.098;2022-08-25T12:56:46;29.10;92.60
7159;DHT22;3621;52.374;13.098;2022-08-25T12:59:17;29.10;92.70
7159;DHT22;3621;52.374;13.098;2022-08-25T13:02:14;29.10;92.80
7159;DHT22;3621;52.374;13.098;2022-08-25T13:05:04;29.00;92.80
7159;DHT22;3621;52.374;13.098;2022-08-25T13:07:54;29.10;92.90
7159;DHT22;3621;52.374;13.098;2022-08-25T13:10:38;29.10;92.80
7159;DHT22;3621;52.374;13.098;2022-08-25T13:13:14;29.20;92.70
7159;DHT22;3621;52.374;13.098;2022-08-25T13:15:45;29.20;92.40
7159;DHT22;3621;52.374;13.098;2022-08-25T13:18:24;29.30;92.30
7159;DHT22;3621;52.374;13.098;2022-08-25T13:20:54;29.30;92.20
7159;DHT22;3621;52.374;13.098;2022-08-25T13:23:28;29.30;92.20
7159;DHT22;3621;52.374;13.098;2022-08-25T13:25:55;29.40;92.20
7159;DHT22;3621;52.374;13.098;2022-08-25T13:28:28;29.40;92.00
7159;DHT22;3621;52.374;13.098;2022-08-25T13:31:02;29.50;91.60
7159;DHT22;3621;52.374;13.098;2022-08-25T13:33:30;29.60;91.40
7159;DHT22;3621;52.374;13.098;2022-08-25T13:35:58;29.70;90.80
7159;DHT22;3621;52.374;13.098;2022-08-25T13:38:44;29.80;90.80
7159;DHT22;3621;52.374;13.098;2022-08-25T13:41:17;29.80;90.40
7159;DHT22;3621;52.374;13.098;2022-08-25T13:43:46;29.80;90.00
7159;DHT22;3621;52.374;13.098;2022-08-25T13:46:18;29.70;90.10
7159;DHT22;3621;52.374;13.098;2022-08-25T13:48:45;29.80;90.30
7159;DHT22;3621;52.374;13.098;2022-08-25T13:51:21;29.80;90.20
7159;DHT22;3621;52.374;13.098;2022-08-25T13:53:52;29.90;89.50
7159;DHT22;3621;52.374;13.098;2022-08-25T13:56:30;29.90;89.40
7159;DHT22;3621;52.374;13.098;2022-08-25T13:59:01;30.00;88.90
7159;DHT22;3621;52.374;13.098;2022-08-25T14:01:30;30.10;87.60
7159;DHT22;3621;52.374;13.098;2022-08-25T14:04:23;30.20;86.90
7159;DHT22;3621;52.374;13.098;2022-08-25T14:07:11;30.20;86.50
7159;DHT22;3621;52.374;13.098;2022-08-25T14:09:45;30.20;86.10
7159;DHT22;3621;52.374;13.098;2022-08-25T14:12:26;30.20;85.70
7159;DHT22;3621;52.374;13.098;2022-08-25T14:15:01;30.10;84.70
7159;DHT22;3621;52.374;13.098;2022-08-25T14:17:28;30.10;84.90
7159;DHT22;3621;52.374;13.098;2022-08-25T14:19:56;30.20;85.30
7159;DHT22;3621;52.374;13.098;2022-08-25T14:22:23;30.20;85.60
7159;DHT22;3621;52.374;13.098;2022-08-25T14:24:52;30.20;86.20
7159;DHT22;3621;52.374;13.098;2022-08-25T14:27:19;30.30;85.10
7159;DHT22;3621;52.374;13.098;2022-08-25T14:29:46;30.40;85.60
7159;DHT22;3621;52.374;13.098;2022-08-25T14:32:15;30.40;85.00
7159;DHT22;3621;52.374;13.098;2022-08-25T14:34:42;30.40;85.60
7159;DHT22;3621;52.374;13.098;2022-08-25T14:37:12;30.40;85.00
7159;DHT22;3621;52.374;13.098;2022-08-25T14:39:39;30.40;85.00
7159;DHT22;3621;52.374;13.098;2022-08-25T14:42:07;30.50;84.30
7159;DHT22;3621;52.374;13.098;2022-08-25T14:44:34;30.50;84.50
7159;DHT22;3621;52.374;13.098;2022-08-25T14:47:01;30.60;84.20
7159;DHT22;3621;52.374;13.098;2022-08-25T14:49:33;30.70;84.20
7159;DHT22;3621;52.374;13.098;2022-08-25T14:52:07;30.70;83.30
7159;DHT22;3621;52.374;13.098;2022-08-25T14:54:35;30.70;82.10
7159;DHT22;3621;52.374;13.098;2022-08-25T14:57:02;30.70;82.00
7159;DHT22;3621;52.374;13.098;2022-08-25T14:59:29;30.60;82.00
7159;DHT22;3621;52.374;13.098;2022-08-25T15:01:58;30.50;82.40
7159;DHT22;3621;52.374;13.098;2022-08-25T15:04:27;30.40;82.70
7159;DHT22;3621;52.374;13.098;2022-08-25T15:06:57;30.30;83.10
7159;DHT22;3621;52.374;13.098;2022-08-25T15:09:25;30.40;84.20
7159;DHT22;3621;52.374;13.098;2022-08-25T15:11:53;30.50;83.50
7159;DHT22;3621;52.374;13.098;2022-08-25T15:14:23;30.70;83.10
7159;DHT22;3621;52.374;13.098;2022-08-25T15:16:52;30.90;82.30
7159;DHT22;3621;52.374;13.098;2022-08-25T15:19:21;31.20;81.60
7159;DHT22;3621;52.374;13.098;2022-08-25T15:21:49;31.40;80.50
7159;DHT22;3621;52.374;13.098;2022-08-25T15:24:19;31.50;79.10
7159;DHT22;3621;52.374;13.098;2022-08-25T15:26:49;31.60;76.70
7159;DHT22;3621;52.374;13.098;2022-08-25T15:29:18;31.60;76.70
7159;DHT22;3621;52.374;13.098;2022-08-25T15:31:45;31.50;75.90
7159;DHT22;3621;52.374;13.098;2022-08-25T15:34:12;31.50;76.30
7159;DHT22;3621;52.374;13.098;2022-08-25T15:36:40;31.30;76.40
7159;DHT22;3621;52.374;13.098;2022-08-25T15:39:07;31.20;77.50
7159;DHT22;3621;52.374;13.098;2022-08-25T15:41:36;31.10;78.20
7159;DHT22;3621;52.374;13.098;2022-08-25T15:44:04;31.00;78.50
7159;DHT22;3621;52.374;13.098;2022-08-25T15:46:32;30.90;79.40
7159;DHT22;3621;52.374;13.098;2022-08-25T15:48:59;30.80;79.50
7159;DHT22;3621;52.374;13.098;2022-08-25T15:51:27;30.70;79.60
7159;DHT22;3621;52.374;13.098;2022-08-25T15:53:55;30.50;79.50
7159;DHT22;3621;52.374;13.098;2022-08-25T15:56:22;30.40;79.10
7159;DHT22;3621;52.374;13.098;2022-08-25T15:58:51;30.40;77.80
7159;DHT22;3621;52.374;13.098;2022-08-25T16:01:20;30.20;76.90
7159;DHT22;3621;52.374;13.098;2022-08-25T16:03:47;30.10;77.00
7159;DHT22;3621;52.374;13.098;2022-08-25T16:06:14;30.00;77.40
7159;DHT22;3621;52.374;13.098;2022-08-25T16:08:41;29.90;78.40
7159;DHT22;3621;52.374;13.098;2022-08-25T16:11:15;29.90;78.20